Time;durP1;ratioP1;P1;durP2;ratioP2;P2;SDS_P1;SDS_P2;PMS_P1;PMS_P2;Temp;Humidity;BMP_temperature;BMP_pressure;BME280_temperature;BME280_humidity;BME280_pressure;Samples;Min_cycle;Max_cycle;Signal;HPM_P1;HPM_P2
2021/05/15 00:01:41;;;;;;;1.30;1.20;;;;;;;9.84;81.26;98741.78;5093550;28;20231;-84
2021/05/15 00:04:09;;;;;;;2.07;1.10;;;;;;;9.85;81.75;98753.28;5093261;28;20217;-83
2021/05/15 00:06:35;;;;;;;1.20;1.10;;;;;;;9.86;81.76;98770.94;5075724;28;20185;-83
2021/05/15 00:09:08;;;;;;;2.17;1.20;;;;;;;9.78;81.87;98761.44;5093598;28;20216;-82
2021/05/15 00:11:38;;;;;;;2.10;1.40;;;;;;;9.71;81.81;98760.75;5091834;28;20236;-82
2021/05/15 00:14:05;;;;;;;1.50;1.20;;;;;;;9.64;82.06;98758.22;5075131;28;20232;-83
2021/05/15 00:16:34;;;;;;;1.30;1.20;;;;;;;9.60;82.39;98762.41;5091563;28;20223;-81
2021/05/15 00:19:02;;;;;;;2.20;1.43;;;;;;;9.49;82.40;98746.34;5092524;28;20280;-83
2021/05/15 00:21:31;;;;;;;1.67;1.57;;;;;;;9.48;82.38;98752.75;5092461;28;20231;-83
2021/05/15 00:24:05;;;;;;;2.33;1.97;;;;;;;9.45;82.80;98763.91;5072778;28;20221;-83
2021/05/15 00:26:35;;;;;;;2.43;2.20;;;;;;;9.46;82.84;98760.19;5072245;28;20280;-82
2021/05/15 00:29:06;;;;;;;2.20;2.00;;;;;;;9.45;83.07;98766.59;5071568;28;20221;-82
2021/05/15 00:31:31;;;;;;;2.37;1.80;;;;;;;9.42;83.25;98759.03;5054309;28;20285;-82
2021/05/15 00:34:02;;;;;;;2.27;1.70;;;;;;;9.50;82.84;98772.88;5073940;28;20248;-83
2021/05/15 00:36:29;;;;;;;2.60;2.10;;;;;;;9.43;83.20;98758.78;5090430;28;20573;-83
2021/05/15 00:39:10;;;;;;;2.03;1.70;;;;;;;9.52;83.43;98777.97;5091804;28;20273;-82
2021/05/15 00:41:39;;;;;;;1.40;1.30;;;;;;;9.44;83.68;98762.28;5090237;28;20216;-83
2021/05/15 00:46:45;;;;;;;2.83;1.87;;;;;;;9.49;83.84;98773.91;5090538;28;20216;-83
2021/05/15 00:49:13;;;;;;;1.60;1.47;;;;;;;9.43;83.67;98766.81;5091739;28;20224;-83
2021/05/15 00:51:40;;;;;;;1.50;1.40;;;;;;;9.44;83.41;98770.28;5091683;28;20221;-83
2021/05/15 00:54:10;;;;;;;1.90;1.57;;;;;;;9.39;83.83;98770.19;5053953;28;20232;-83
2021/05/15 00:56:39;;;;;;;2.23;1.50;;;;;;;9.34;84.32;98767.38;5053704;28;20221;-82
2021/05/15 00:59:09;;;;;;;2.93;1.57;;;;;;;9.26;84.14;98763.22;5088565;28;20224;-83
2021/05/15 01:01:41;;;;;;;1.63;1.37;;;;;;;9.22;84.22;98756.72;5073590;28;20220;-84
2021/05/15 01:04:07;;;;;;;3.80;1.40;;;;;;;9.22;84.28;98762.88;5091057;28;20208;-83
2021/05/15 01:06:38;;;;;;;1.53;1.37;;;;;;;9.25;83.91;98769.59;5090776;28;20277;-83
2021/05/15 01:09:05;;;;;;;2.30;1.40;;;;;;;9.16;84.33;98745.06;5074796;28;20215;-84
2021/05/15 01:11:34;;;;;;;1.90;1.67;;;;;;;9.20;84.46;98754.25;5070333;28;20276;-83
2021/05/15 01:14:02;;;;;;;1.60;1.50;;;;;;;9.15;83.91;98747.97;5070522;28;20218;-83
2021/05/15 01:16:32;;;;;;;1.70;1.50;;;;;;;9.14;84.68;98746.38;5063554;28;20221;-82
2021/05/15 01:18:59;;;;;;;2.90;1.57;;;;;;;9.19;84.25;98754.50;5077285;22;20221;-80
2021/05/15 01:21:26;;;;;;;2.00;1.60;;;;;;;9.24;84.51;98759.94;5053944;28;20212;-81
2021/05/15 01:23:58;;;;;;;3.53;1.80;;;;;;;9.28;84.70;98759.25;5069876;28;20608;-84
2021/05/15 01:26:31;;;;;;;1.60;1.50;;;;;;;9.24;84.53;98747.41;5070463;28;20197;-83
2021/05/15 01:29:03;;;;;;;1.50;1.40;;;;;;;9.32;84.66;98764.16;5070455;28;20205;-83
2021/05/15 01:31:31;;;;;;;1.77;1.40;;;;;;;9.37;84.94;98758.94;5070882;28;20209;-82
2021/05/15 01:33:59;;;;;;;1.50;1.20;;;;;;;9.37;84.60;98757.06;5070231;28;20225;-83
2021/05/15 01:36:28;;;;;;;1.53;1.33;;;;;;;9.37;84.77;98749.03;5070565;28;20320;-83
2021/05/15 01:38:57;;;;;;;1.50;1.20;;;;;;;9.29;84.84;98744.03;5072783;28;20198;-84
2021/05/15 01:41:30;;;;;;;1.40;1.23;;;;;;;9.22;84.76;98741.50;5054398;28;20225;-83
2021/05/15 01:43:57;;;;;;;2.60;1.30;;;;;;;9.23;84.87;98742.31;5071232;28;20220;-83
2021/05/15 01:46:28;;;;;;;1.70;1.33;;;;;;;9.19;84.86;98741.94;5070654;28;20232;-83
2021/05/15 01:48:53;;;;;;;1.23;1.13;;;;;;;9.29;84.97;98752.03;5070471;28;20241;-83
2021/05/15 01:51:24;;;;;;;1.60;1.40;;;;;;;9.28;84.82;98753.91;5070730;28;20228;-83
2021/05/15 01:53:52;;;;;;;1.50;1.40;;;;;;;9.18;84.99;98736.84;5072424;28;20296;-83
2021/05/15 01:56:32;;;;;;;1.70;1.30;;;;;;;9.29;84.56;98750.19;5074666;28;20217;-83
2021/05/15 01:58:58;;;;;;;1.40;1.17;;;;;;;9.21;84.93;98753.22;5075295;28;20200;-82
2021/05/15 02:01:27;;;;;;;1.53;1.30;;;;;;;9.20;85.35;98748.09;5074561;28;20674;-83
2021/05/15 02:03:56;;;;;;;1.30;1.20;;;;;;;9.16;85.08;98742.41;5074452;28;20213;-83
2021/05/15 02:06:23;;;;;;;1.13;1.10;;;;;;;9.10;85.18;98740.66;5074594;28;20308;-83
2021/05/15 02:08:52;;;;;;;1.30;1.20;;;;;;;9.12;85.40;98743.09;5075489;28;20271;-84
2021/05/15 02:11:23;;;;;;;1.50;1.40;;;;;;;9.16;85.14;98750.44;5075622;28;20174;-83
2021/05/15 02:13:54;;;;;;;2.93;1.70;;;;;;;9.00;84.98;98723.59;5088114;22;20322;-83
2021/05/15 02:16:24;;;;;;;1.40;1.30;;;;;;;9.11;85.06;98739.63;5053788;28;20222;-83
2021/05/15 02:18:51;;;;;;;1.63;1.40;;;;;;;9.13;85.58;98748.22;5058968;28;20265;-83
2021/05/15 02:21:20;;;;;;;1.50;1.40;;;;;;;9.14;85.37;98746.38;5074894;28;20247;-83
2021/05/15 02:23:47;;;;;;;1.53;1.30;;;;;;;9.09;85.59;98738.22;5071439;28;20217;-83
2021/05/15 02:26:13;;;;;;;1.10;1.10;;;;;;;9.09;85.48;98739.03;5053693;28;20225;-83
2021/05/15 02:28:44;;;;;;;2.83;1.50;;;;;;;9.16;85.84;98742.41;5055930;28;20230;-81
2021/05/15 02:31:10;;;;;;;1.73;1.30;;;;;;;9.16;85.90;98750.44;5074076;28;20220;-82
2021/05/15 02:33:36;;;;;;;1.50;1.40;;;;;;;9.11;85.71;98736.13;5055259;28;20240;-83
2021/05/15 02:36:02;;;;;;;1.60;1.50;;;;;;;9.17;85.96;98753.91;5067653;28;20236;-81
2021/05/15 02:38:28;;;;;;;1.57;1.23;;;;;;;9.18;86.08;98751.03;5073318;28;20201;-83
2021/05/15 02:40:54;;;;;;;1.80;1.30;;;;;;;9.17;86.21;98743.22;5073087;28;20209;-82
2021/05/15 02:43:23;;;;;;;2.33;1.40;;;;;;;9.13;86.58;98742.06;5054020;28;20683;-83
2021/05/15 02:45:51;;;;;;;1.83;1.50;;;;;;;9.13;86.31;98734.88;5078917;22;20307;-83
2021/05/15 02:48:18;;;;;;;2.23;1.47;;;;;;;9.08;86.74;98733.94;5058105;28;20248;-83
2021/05/15 02:50:49;;;;;;;1.73;1.40;;;;;;;9.22;86.51;98746.00;5092970;28;20227;-84
2021/05/15 02:53:16;;;;;;;2.83;1.50;;;;;;;9.24;86.64;98749.25;5075328;28;20228;-83
2021/05/15 02:55:43;;;;;;;1.40;1.30;;;;;;;9.26;86.15;98750.66;5094130;28;20227;-82
2021/05/15 02:58:11;;;;;;;1.47;1.30;;;;;;;9.29;86.28;98758.22;5092807;28;20284;-84
2021/05/15 03:00:37;;;;;;;1.63;1.53;;;;;;;9.29;86.05;98757.38;5076000;28;20224;-83
2021/05/15 03:03:03;;;;;;;3.13;1.70;;;;;;;9.24;86.55;98765.28;5075554;28;20208;-83
2021/05/15 03:05:31;;;;;;;1.57;1.47;;;;;;;9.14;87.01;98759.72;5091711;28;20224;-83
2021/05/15 03:07:58;;;;;;;1.50;1.40;;;;;;;9.10;86.62;98753.19;5091770;28;20221;-83
2021/05/15 03:10:25;;;;;;;2.57;1.70;;;;;;;9.15;86.85;98754.13;5080559;28;20250;-83
2021/05/15 03:12:54;;;;;;;1.43;1.33;;;;;;;9.22;87.08;98759.38;5072233;28;20243;-83
2021/05/15 03:15:25;;;;;;;2.63;1.57;;;;;;;9.28;87.29;98753.13;5064311;28;20217;-82
2021/05/15 03:17:52;;;;;;;1.70;1.60;;;;;;;9.31;86.74;98762.50;5092465;28;20220;-83
2021/05/15 03:20:23;;;;;;;1.93;1.70;;;;;;;9.20;86.39;98734.72;5116827;22;20239;-83
2021/05/15 03:22:55;;;;;;;2.53;1.73;;;;;;;9.36;86.39;98760.78;5076444;28;20216;-83
2021/05/15 03:25:22;;;;;;;2.30;1.80;;;;;;;9.38;86.30;98758.66;5101570;28;20627;-83
2021/05/15 03:27:49;;;;;;;1.60;1.50;;;;;;;9.50;86.54;98754.16;5113618;28;20283;-81
2021/05/15 03:30:22;;;;;;;4.03;1.93;;;;;;;9.55;86.37;98754.25;5095439;28;20251;-83
2021/05/15 03:32:48;;;;;;;2.83;1.70;;;;;;;9.68;85.62;98767.38;5113572;28;20215;-84
2021/05/15 03:35:20;;;;;;;1.97;1.73;;;;;;;9.74;85.61;98760.28;5107388;28;20220;-83
2021/05/15 03:37:48;;;;;;;2.83;1.67;;;;;;;9.79;85.36;98762.25;5092819;28;20223;-83
2021/05/15 03:40:19;;;;;;;1.97;1.77;;;;;;;9.83;85.44;98764.22;5070614;28;20540;-82
2021/05/15 03:42:53;;;;;;;2.10;1.90;;;;;;;9.91;85.50;98760.38;5083711;23;20217;-83
2021/05/15 03:45:23;;;;;;;1.83;1.73;;;;;;;10.02;85.22;98770.25;5096452;28;20212;-81
2021/05/15 03:47:52;;;;;;;2.57;1.87;;;;;;;10.11;84.93;98769.63;5114658;28;20180;-84
2021/05/15 03:50:18;;;;;;;2.20;1.93;;;;;;;10.27;84.54;98770.75;5114273;28;20220;-83
2021/05/15 03:52:46;;;;;;;2.00;1.73;;;;;;;10.44;84.13;98776.19;5096408;28;20252;-83
2021/05/15 03:55:14;;;;;;;2.07;1.80;;;;;;;10.57;83.55;98778.56;5114119;28;20231;-84
2021/05/15 03:57:41;;;;;;;2.03;1.80;;;;;;;10.72;83.18;98778.03;5114288;28;20224;-82
2021/05/15 04:00:10;;;;;;;2.50;2.30;;;;;;;10.91;82.80;98782.13;5096932;28;20216;-84
2021/05/15 04:02:40;;;;;;;2.20;2.00;;;;;;;11.12;81.98;98776.03;5114398;28;20216;-82
2021/05/15 04:05:08;;;;;;;2.30;2.10;;;;;;;11.28;81.00;98761.81;5128623;22;20236;-83
2021/05/15 04:07:35;;;;;;;2.13;1.60;;;;;;;11.62;80.18;98778.66;5074833;28;20221;-82
2021/05/15 04:10:00;;;;;;;1.90;1.70;;;;;;;11.81;79.19;98760.44;5075596;28;20190;-83
2021/05/15 04:12:35;;;;;;;2.53;1.50;;;;;;;11.82;79.12;98776.31;5076847;28;20268;-82
2021/05/15 04:15:08;;;;;;;2.13;1.50;;;;;;;11.82;78.86;98776.31;5110444;22;20270;-80
2021/05/15 04:17:34;;;;;;;1.60;1.27;;;;;;;11.81;78.94;98779.22;5095790;28;20207;-81
2021/05/15 04:20:07;;;;;;;1.67;1.30;;;;;;;11.83;79.08;98788.69;5105442;22;20204;-82
2021/05/15 04:22:36;;;;;;;1.73;1.40;;;;;;;11.74;78.85;98770.56;5126363;22;20234;-83
2021/05/15 04:25:13;;;;;;;2.40;2.20;;;;;;;11.90;78.87;98788.47;5104915;22;20227;-81
2021/05/15 04:27:45;;;;;;;1.90;1.63;;;;;;;11.94;79.11;98792.31;5083385;23;20207;31
2021/05/15 04:30:13;;;;;;;1.67;1.30;;;;;;;12.01;78.71;98792.94;5019781;28;20230;-82
2021/05/15 04:33:04;;;;;;;1.67;1.17;;;;;;;11.98;78.90;98774.66;5036307;28;20302;-82
2021/05/15 04:35:34;;;;;;;1.30;1.20;;;;;;;12.07;78.87;98799.19;5038209;28;20207;-81
2021/05/15 04:38:22;;;;;;;1.87;1.30;;;;;;;12.15;78.24;98794.19;5038251;28;20238;-80
2021/05/15 04:41:04;;;;;;;1.50;1.37;;;;;;;12.22;77.72;98794.00;5021442;28;20202;-81
2021/05/15 04:43:33;;;;;;;1.73;1.30;;;;;;;12.25;78.09;98796.19;5038419;28;20190;-80
2021/05/15 04:46:45;;;;;;;1.37;1.20;;;;;;;12.23;78.07;98788.38;5038207;28;20167;-81
2021/05/15 04:49:21;;;;;;;1.40;1.30;;;;;;;12.26;77.67;98795.94;5016836;28;20215;-81
2021/05/15 04:51:54;;;;;;;2.40;1.50;;;;;;;12.32;77.51;98799.47;5109737;22;20225;-81
2021/05/15 04:55:55;;;;;;;1.20;1.10;;;;;;;12.40;76.58;98796.38;5076330;23;20300;-82
2021/05/15 05:01:39;;;;;;;1.97;1.43;;;;;;;12.36;76.80;98771.09;5139206;22;20224;-78
2021/05/15 05:04:16;;;;;;;1.43;1.30;;;;;;;12.62;76.96;98804.41;5095627;28;20237;-82
2021/05/15 05:06:43;;;;;;;1.50;1.40;;;;;;;12.68;76.54;98798.84;5098234;28;20191;-80
2021/05/15 05:09:12;;;;;;;1.53;1.37;;;;;;;12.87;75.47;98807.34;5096545;28;20251;-82
2021/05/15 05:11:40;;;;;;;2.00;1.40;;;;;;;12.97;74.78;98799.34;5094868;28;20189;-83
2021/05/15 05:14:15;;;;;;;1.60;1.50;;;;;;;13.15;73.62;98792.84;5071626;28;20674;-84
2021/05/15 05:16:43;;;;;;;2.17;1.40;;;;;;;13.29;73.60;98806.69;5088761;28;20217;-84
2021/05/15 05:19:12;;;;;;;1.87;1.50;;;;;;;13.46;73.04;98815.41;5046357;28;20228;-84
2021/05/15 05:21:50;;;;;;;1.63;1.50;;;;;;;13.58;72.35;98792.63;5059890;28;20234;-84
2021/05/15 05:24:17;;;;;;;2.17;1.70;;;;;;;13.86;71.83;98796.84;5076373;28;20270;-88
2021/05/15 05:26:43;;;;;;;1.50;1.40;;;;;;;14.13;71.10;98793.22;5074311;28;20213;-87
2021/05/15 05:29:09;;;;;;;1.87;1.50;;;;;;;14.35;69.99;98791.97;5041008;28;20229;-88
2021/05/15 05:31:44;;;;;;;1.40;1.30;;;;;;;14.59;69.19;98796.91;5040933;28;20235;-84
2021/05/15 05:34:09;;;;;;;3.67;3.20;;;;;;;14.76;68.47;98798.31;5056978;28;20635;-86
2021/05/15 05:36:36;;;;;;;2.40;2.20;;;;;;;14.93;67.54;98798.06;5057444;28;20219;-85
2021/05/15 05:39:05;;;;;;;1.90;1.80;;;;;;;15.10;67.35;98803.22;5037516;28;20217;-86
2021/05/15 05:41:31;;;;;;;1.50;1.40;;;;;;;15.15;66.41;98793.25;5054472;28;20698;-86
2021/05/15 05:43:56;;;;;;;1.40;1.30;;;;;;;15.14;66.18;98801.59;5037605;28;20315;-86
2021/05/15 05:46:22;;;;;;;1.33;1.23;;;;;;;15.20;65.97;98811.31;5020563;28;20230;-86
2021/05/15 05:48:48;;;;;;;1.73;1.10;;;;;;;15.20;66.23;98814.00;5054482;28;20250;-85
2021/05/15 05:51:13;;;;;;;1.50;1.40;;;;;;;15.13;66.69;98808.88;5020887;28;20220;-85
2021/05/15 05:53:39;;;;;;;1.30;1.20;;;;;;;15.07;66.49;98804.53;5054920;28;20519;-87
2021/05/15 05:56:05;;;;;;;1.30;1.20;;;;;;;15.15;66.16;98808.59;5036990;28;20253;-86
2021/05/15 05:58:31;;;;;;;1.20;1.10;;;;;;;15.10;66.07;98800.50;5050630;28;20298;-86
2021/05/15 06:00:57;;;;;;;2.00;1.30;;;;;;;15.18;65.96;98803.47;5040696;28;20294;-86
2021/05/15 06:03:23;;;;;;;1.10;1.00;;;;;;;15.21;65.55;98802.94;5073720;28;20569;-85
2021/05/15 06:05:48;;;;;;;0.90;0.83;;;;;;;15.25;64.99;98806.72;5073985;28;20230;-86
2021/05/15 06:08:14;;;;;;;1.20;1.10;;;;;;;15.37;64.58;98804.56;5056674;28;20230;-86
2021/05/15 06:10:40;;;;;;;1.17;0.90;;;;;;;15.53;64.05;98813.50;5073994;28;20639;-85
2021/05/15 06:13:06;;;;;;;2.03;1.00;;;;;;;15.61;63.63;98810.25;5066121;28;20232;-86
2021/05/15 06:15:32;;;;;;;0.93;0.87;;;;;;;15.73;63.18;98810.75;5020820;28;20315;-87
2021/05/15 06:17:58;;;;;;;2.67;1.00;;;;;;;15.81;62.89;98806.72;5042857;28;20322;-88
2021/05/15 06:20:24;;;;;;;1.33;1.20;;;;;;;15.77;63.29;98811.03;5056849;28;20231;-88
2021/05/15 06:22:50;;;;;;;1.40;1.10;;;;;;;15.81;63.37;98807.53;5073513;28;20230;-87
2021/05/15 06:25:16;;;;;;;0.73;0.67;;;;;;;15.99;62.46;98821.53;5057176;28;20547;-87
2021/05/15 06:27:42;;;;;;;1.90;0.83;;;;;;;16.00;62.83;98823.16;5070836;28;20696;-87
2021/05/15 06:30:09;;;;;;;1.13;0.93;;;;;;;16.14;61.54;98827.69;5053381;28;20359;-87
2021/05/15 06:32:35;;;;;;;1.03;0.80;;;;;;;16.09;61.80;98814.22;5054007;28;20227;-88
2021/05/15 06:35:01;;;;;;;1.23;0.80;;;;;;;16.19;61.11;98829.59;5057054;28;20221;-87
2021/05/15 06:37:26;;;;;;;0.77;0.77;;;;;;;16.25;61.32;98820.34;5056708;28;20231;-86
2021/05/15 06:39:52;;;;;;;1.60;0.73;;;;;;;16.22;61.31;98818.22;5038277;28;20649;-87
2021/05/15 06:42:17;;;;;;;1.80;0.90;;;;;;;16.42;61.09;98823.56;5023507;28;20232;-88
2021/05/15 06:44:43;;;;;;;1.00;0.90;;;;;;;16.46;60.89;98821.09;5040779;28;20237;-87
2021/05/15 06:47:12;;;;;;;1.37;1.10;;;;;;;16.47;60.80;98822.72;5040469;28;20241;-86
2021/05/15 06:49:38;;;;;;;2.10;0.80;;;;;;;16.59;60.70;98829.44;5055712;28;20675;-87
2021/05/15 06:52:04;;;;;;;0.80;0.80;;;;;;;16.70;60.68;98832.91;5059511;28;20251;-87
2021/05/15 06:54:30;;;;;;;0.97;0.90;;;;;;;16.78;60.65;98826.09;5062974;28;20636;-87
2021/05/15 06:56:55;;;;;;;0.97;0.97;;;;;;;16.77;61.02;98828.00;5048000;28;20334;-86
2021/05/15 06:59:21;;;;;;;1.70;1.00;;;;;;;16.91;60.83;98825.47;5040343;28;20221;-89
2021/05/15 07:01:47;;;;;;;1.97;1.00;;;;;;;17.04;60.74;98825.66;5023966;28;20231;-89
2021/05/15 07:04:13;;;;;;;4.80;1.43;;;;;;;17.24;59.37;98838.25;5023357;28;20229;-87
2021/05/15 07:06:39;;;;;;;1.30;1.20;;;;;;;17.50;58.01;98833.44;5023745;28;20252;-86
2021/05/15 07:09:04;;;;;;;2.53;1.60;;;;;;;18.02;55.91;98824.56;5040184;28;20228;-88
2021/05/15 07:11:30;;;;;;;1.43;1.33;;;;;;;18.47;54.98;98834.13;5057703;28;20225;-87
2021/05/15 07:13:55;;;;;;;1.97;1.50;;;;;;;18.81;54.03;98836.66;5042868;28;20232;-86
2021/05/15 07:16:21;;;;;;;1.40;1.30;;;;;;;19.19;52.88;98832.06;5056386;28;20225;-85
2021/05/15 07:18:47;;;;;;;1.50;1.27;;;;;;;19.43;51.41;98838.19;5027766;28;20492;-88
2021/05/15 07:21:13;;;;;;;1.10;1.10;;;;;;;19.53;50.93;98837.25;5043351;28;20219;-88
2021/05/15 07:23:38;;;;;;;2.10;1.13;;;;;;;19.41;51.13;98826.03;5042975;28;20643;-86
2021/05/15 07:26:08;;;;;;;1.00;0.97;;;;;;;19.27;51.70;98824.03;5059292;28;20228;-87
2021/05/15 07:28:37;;;;;;;2.13;1.07;;;;;;;19.27;51.21;98844.97;5076117;28;20228;-86
2021/05/15 07:31:03;;;;;;;1.90;1.20;;;;;;;19.15;50.79;98836.47;5022829;28;20217;-87
2021/05/15 07:33:28;;;;;;;1.30;1.20;;;;;;;19.16;51.57;98836.16;5039463;28;20229;-86
2021/05/15 07:35:54;;;;;;;2.17;1.40;;;;;;;19.33;50.95;98844.59;5042374;28;20328;-87
2021/05/15 07:38:21;;;;;;;1.67;1.10;;;;;;;19.36;50.56;98833.13;5058827;28;20220;-86
2021/05/15 07:40:50;;;;;;;1.50;1.40;;;;;;;19.59;49.89;98839.59;5041325;28;20218;-86
2021/05/15 07:43:22;;;;;;;1.03;0.93;;;;;;;19.65;49.69;98845.72;5039338;28;20217;-86
2021/05/15 07:45:49;;;;;;;1.87;1.27;;;;;;;19.98;48.10;98847.31;5022478;28;20218;-84
2021/05/15 07:48:15;;;;;;;1.33;1.23;;;;;;;20.23;47.26;98838.69;5035932;28;20226;-86
2021/05/15 07:50:40;;;;;;;2.33;1.40;;;;;;;20.61;47.62;98841.25;5070801;28;20567;-86
2021/05/15 07:53:06;;;;;;;2.03;1.83;;;;;;;20.50;48.99;98845.28;5058794;28;20220;-86
2021/05/15 07:55:32;;;;;;;1.53;1.43;;;;;;;20.78;46.98;98844.13;5075402;28;20228;-86
2021/05/15 07:57:57;;;;;;;2.07;1.47;;;;;;;20.48;47.75;98842.84;5058462;28;20230;-86
2021/05/15 08:00:23;;;;;;;1.20;1.10;;;;;;;20.44;48.37;98849.19;5074612;28;20235;-87
2021/05/15 08:02:48;;;;;;;3.33;1.13;;;;;;;20.35;46.47;98835.50;5050380;28;20312;-86
2021/05/15 08:05:14;;;;;;;1.43;1.20;;;;;;;19.98;47.10;98838.34;5011955;28;20234;-84
2021/05/15 08:07:39;;;;;;;1.30;1.20;;;;;;;20.29;46.96;98844.03;5018394;28;20352;-84
2021/05/15 08:10:09;;;;;;;3.20;1.93;;;;;;;20.34;47.73;98850.22;5026511;28;20625;-83
2021/05/15 08:12:36;;;;;;;1.40;1.30;;;;;;;20.10;48.55;98861.25;5054909;28;20229;-86
2021/05/15 08:15:06;;;;;;;2.23;1.40;;;;;;;19.61;49.17;98850.16;5055767;28;20219;-82
2021/05/15 08:17:34;;;;;;;1.80;1.70;;;;;;;19.46;51.02;98853.91;5054960;28;20226;-86
2021/05/15 08:20:02;;;;;;;2.73;1.77;;;;;;;19.39;50.83;98861.63;5032210;28;20256;-86
2021/05/15 08:22:27;;;;;;;1.97;1.67;;;;;;;19.11;52.03;98854.44;5018345;28;20223;-86
2021/05/15 08:24:53;;;;;;;2.83;1.60;;;;;;;18.74;53.11;98866.06;5023189;28;20390;-86
2021/05/15 08:27:19;;;;;;;2.37;1.87;;;;;;;18.61;54.18;98872.22;5038113;28;20218;-87
2021/05/15 08:29:44;;;;;;;4.10;2.33;;;;;;;18.65;55.66;98870.53;5019180;28;20233;-85
2021/05/15 08:32:10;;;;;;;3.30;2.60;;;;;;;18.52;56.50;98880.16;5017834;28;20248;-87
2021/05/15 08:34:35;;;;;;;2.70;2.50;;;;;;;18.65;56.43;98860.50;5018589;28;20226;-87
2021/05/15 08:37:01;;;;;;;2.90;2.53;;;;;;;18.66;56.55;98872.97;5038190;28;20527;-87
2021/05/15 08:39:26;;;;;;;2.60;2.40;;;;;;;18.54;56.54;98869.84;5037756;28;20644;-87
2021/05/15 08:41:52;;;;;;;2.97;2.53;;;;;;;18.59;56.93;98887.97;5038184;28;20495;-87
2021/05/15 08:44:23;;;;;;;3.00;2.80;;;;;;;18.61;57.27;98888.50;5037584;28;20214;-86
2021/05/15 08:46:50;;;;;;;2.87;2.67;;;;;;;18.53;57.68;98886.38;5020379;28;20238;-85
2021/05/15 08:49:20;;;;;;;4.77;3.30;;;;;;;18.44;58.88;98886.19;5018144;28;20317;-87
2021/05/15 08:51:46;;;;;;;2.80;2.63;;;;;;;18.40;60.21;98898.72;5050965;28;20247;-86
2021/05/15 08:54:12;;;;;;;3.30;3.00;;;;;;;18.19;60.45;98886.50;5053839;28;20245;-86
2021/05/15 08:56:38;;;;;;;2.17;1.77;;;;;;;18.06;59.59;98898.00;5054291;28;20253;-86
2021/05/15 08:59:03;;;;;;;2.13;1.70;;;;;;;17.91;59.79;98894.34;5037471;28;20296;-86
2021/05/15 09:01:29;;;;;;;2.10;1.90;;;;;;;17.95;60.87;98900.81;5054403;28;20308;-87
2021/05/15 09:03:55;;;;;;;1.53;1.43;;;;;;;17.87;61.75;98887.06;5053918;28;20330;-86
2021/05/15 09:06:21;;;;;;;2.17;1.30;;;;;;;17.96;60.69;98880.72;5057417;28;20224;-86
2021/05/15 09:08:49;;;;;;;1.60;1.30;;;;;;;18.08;60.90;98891.19;5056977;28;20231;-88
2021/05/15 09:11:16;;;;;;;1.20;1.10;;;;;;;18.20;60.28;98899.75;5045259;28;20217;-87
2021/05/15 09:13:51;;;;;;;1.60;1.50;;;;;;;18.20;59.81;98890.78;5036816;28;20226;-87
2021/05/15 09:16:18;;;;;;;2.97;1.43;;;;;;;17.98;60.96;98885.88;5063622;28;20231;-86
2021/05/15 09:18:45;;;;;;;2.80;2.60;;;;;;;18.11;60.52;98890.63;5057838;28;20612;-88
2021/05/15 09:21:15;;;;;;;2.80;2.60;;;;;;;18.04;60.26;98879.31;5057616;28;20228;-84
2021/05/15 09:23:45;;;;;;;3.70;2.50;;;;;;;18.06;61.02;98895.31;5073943;28;20573;-84
2021/05/15 09:26:17;;;;;;;3.50;2.77;;;;;;;18.09;61.84;98883.88;5037687;28;20229;-88
2021/05/15 09:28:56;;;;;;;3.37;2.00;;;;;;;18.21;61.25;98881.56;5054530;28;20233;-88
2021/05/15 09:31:24;;;;;;;3.53;2.40;;;;;;;18.49;60.92;98897.00;5029410;28;20255;-86
2021/05/15 09:33:52;;;;;;;1.90;1.60;;;;;;;18.69;60.47;98894.09;5057751;28;20224;-88
2021/05/15 09:36:26;;;;;;;2.40;1.63;;;;;;;18.85;59.82;98900.09;5073815;28;20690;-84
2021/05/15 09:39:10;;;;;;;2.73;2.03;;;;;;;19.07;59.71;98886.81;5057451;28;20218;-87
2021/05/15 09:41:37;;;;;;;2.00;1.90;;;;;;;19.55;59.16;98889.41;5057778;28;20222;-86
2021/05/15 09:44:06;;;;;;;1.57;1.40;;;;;;;19.61;58.79;98877.31;5036945;28;20542;-85
2021/05/15 09:46:34;;;;;;;1.77;1.67;;;;;;;20.15;57.39;98887.56;5044687;28;20220;-86
2021/05/15 09:49:03;;;;;;;1.90;1.80;;;;;;;20.41;56.42;98899.59;5056848;28;20232;-85
2021/05/15 09:51:30;;;;;;;1.80;1.70;;;;;;;20.50;56.49;98881.44;5050604;28;20229;-85
2021/05/15 09:54:18;;;;;;;2.77;2.53;;;;;;;20.57;57.01;98881.88;5053701;28;20313;-86
2021/05/15 09:56:55;;;;;;;3.27;3.07;;;;;;;20.52;56.31;98881.16;5061860;28;20217;-86
2021/05/15 09:59:32;;;;;;;6.83;6.23;;;;;;;20.25;57.17;98889.28;5057230;28;20233;-86
2021/05/15 10:02:13;;;;;;;7.97;7.43;;;;;;;20.57;56.22;98876.44;5040388;28;20233;-86
2021/05/15 10:04:44;;;;;;;3.40;3.10;;;;;;;20.86;55.33;98870.63;5056838;28;20229;-84
2021/05/15 10:07:18;;;;;;;3.50;3.20;;;;;;;20.85;54.55;98866.31;5047346;28;20245;-85
2021/05/15 10:09:45;;;;;;;2.40;2.20;;;;;;;20.83;55.30;98856.84;5054459;28;20226;-86
2021/05/15 10:12:16;;;;;;;2.90;2.67;;;;;;;20.85;54.96;98860.06;5063756;28;20573;-86
2021/05/15 10:14:43;;;;;;;2.20;2.00;;;;;;;20.53;53.13;98836.53;5056995;28;20249;-86
2021/05/15 10:17:10;;;;;;;1.10;1.00;;;;;;;20.57;52.85;98856.56;5060824;28;20231;-86
2021/05/15 10:19:36;;;;;;;1.50;1.40;;;;;;;20.45;54.16;98846.19;5061121;28;20236;-86
2021/05/15 10:22:03;;;;;;;2.43;1.70;;;;;;;20.13;55.07;98857.13;5043800;28;20228;-86
2021/05/15 10:24:33;;;;;;;1.47;1.30;;;;;;;19.91;54.62;98865.13;5044066;28;20231;-86
2021/05/15 10:27:03;;;;;;;1.43;1.30;;;;;;;19.88;53.87;98861.09;5040707;28;20671;-86
2021/05/15 10:29:54;;;;;;;1.50;1.40;;;;;;;19.61;55.93;98871.88;5024558;28;20287;-87
2021/05/15 10:32:22;;;;;;;3.87;3.03;;;;;;;19.54;56.74;98866.03;5004377;28;20246;-87
2021/05/15 10:35:09;;;;;;;2.93;2.60;;;;;;;19.17;56.21;98861.41;5034764;28;20237;-88
2021/05/15 10:37:39;;;;;;;3.10;2.80;;;;;;;18.93;58.28;98842.50;5020621;28;20229;-84
2021/05/15 10:40:20;;;;;;;3.07;2.50;;;;;;;18.79;59.38;98855.16;5036773;28;20241;-85
2021/05/15 10:43:01;;;;;;;2.63;1.70;;;;;;;18.69;58.75;98841.72;5038976;28;20235;-86
2021/05/15 10:45:35;;;;;;;2.60;2.37;;;;;;;18.55;60.44;98844.34;5050175;28;20224;-86
2021/05/15 10:48:13;;;;;;;10.53;9.40;;;;;;;18.86;60.21;98828.47;5049844;28;20221;-84
2021/05/15 10:50:48;;;;;;;1.97;1.87;;;;;;;19.27;58.06;98820.53;5049314;28;20228;-86
2021/05/15 10:53:40;;;;;;;4.27;3.87;;;;;;;19.40;57.09;98813.53;5049899;28;20227;-86
2021/05/15 10:56:13;;;;;;;2.93;2.50;;;;;;;19.84;55.06;98822.03;5050386;28;20232;-87
2021/05/15 10:58:49;;;;;;;6.87;6.27;;;;;;;20.26;55.42;98804.63;5039369;28;20268;-83
2021/05/15 11:01:18;;;;;;;3.03;2.63;;;;;;;20.90;53.68;98797.34;5050563;28;20805;-87
2021/05/15 11:03:47;;;;;;;4.20;3.80;;;;;;;21.53;52.32;98803.47;5062566;28;20268;-90
2021/05/15 11:06:19;;;;;;;6.30;5.67;;;;;;;21.59;52.62;98784.25;5059254;28;20224;-88
2021/05/15 11:09:19;;;;;;;6.30;5.70;;;;;;;21.19;52.55;98780.59;5015226;28;20232;-85
2021/05/15 11:11:46;;;;;;;9.93;9.30;;;;;;;20.87;51.85;98778.88;5048856;28;20244;-86
2021/05/15 11:14:30;;;;;;;5.73;5.33;;;;;;;20.61;54.94;98781.38;5056632;28;20219;-86
2021/05/15 11:17:07;;;;;;;2.10;2.00;;;;;;;20.48;55.34;98774.81;5047185;28;20214;-84
2021/05/15 11:19:34;;;;;;;1.83;1.40;;;;;;;19.93;54.66;98756.91;5039700;28;20235;-85
2021/05/15 11:22:01;;;;;;;2.10;1.57;;;;;;;19.68;56.71;98753.56;5038815;28;20242;-83
2021/05/15 11:24:35;;;;;;;0.90;0.90;;;;;;;19.68;54.59;98758.19;5045547;28;20233;-85
2021/05/15 11:27:13;;;;;;;1.20;1.10;;;;;;;19.64;56.10;98755.25;5055130;28;20657;-87
2021/05/15 11:29:40;;;;;;;1.80;1.33;;;;;;;19.40;55.96;98751.06;5041756;28;20238;-83
2021/05/15 11:32:13;;;;;;;2.43;1.50;;;;;;;19.15;58.11;98739.53;5057937;28;20232;-84
2021/05/15 11:34:41;;;;;;;1.40;1.30;;;;;;;19.33;57.15;98741.38;5040234;28;20315;-81
2021/05/15 11:37:09;;;;;;;1.80;1.20;;;;;;;19.31;56.77;98742.81;5038718;28;20235;-86
2021/05/15 11:39:36;;;;;;;1.37;0.90;;;;;;;19.59;56.16;98721.97;5039180;28;20236;-84
2021/05/15 11:42:08;;;;;;;1.30;1.20;;;;;;;19.87;55.01;98744.53;5038393;28;20232;-87
2021/05/15 11:44:37;;;;;;;1.43;1.10;;;;;;;20.52;51.22;98740.47;5054347;28;20244;-85
2021/05/15 11:47:11;;;;;;;1.83;0.90;;;;;;;21.13;52.25;98744.53;5058384;28;20656;-86
2021/05/15 11:49:39;;;;;;;1.10;1.10;;;;;;;21.30;49.59;98747.38;5042894;28;20233;-85
2021/05/15 11:52:10;;;;;;;0.90;0.90;;;;;;;21.23;49.56;98736.09;5058613;28;20229;-86
2021/05/15 11:54:38;;;;;;;1.53;1.20;;;;;;;21.46;49.61;98723.28;5047721;28;20513;-86